sensor_id;sensor_type;location;lat;lon;timestamp;P1;durP1;ratioP1;P2;durP2;ratioP2
33786;SDS011;29742;51.540;9.358;2023-05-10T00:03:09;0.75;;;0.70;;
33786;SDS011;29742;51.540;9.358;2023-05-10T00:08:09;0.32;;;0.32;;
33786;SDS011;29742;51.540;9.358;2023-05-10T00:13:10;0.43;;;0.43;;
33786;SDS011;29742;51.540;9.358;2023-05-10T00:18:10;0.52;;;0.50;;
33786;SDS011;29742;51.540;9.358;2023-05-10T00:23:11;0.38;;;0.35;;
33786;SDS011;29742;51.540;9.358;2023-05-10T00:28:12;0.60;;;0.60;;
33786;SDS011;29742;51.540;9.358;2023-05-10T00:33:12;0.40;;;0.40;;
33786;SDS011;29742;51.540;9.358;2023-05-10T00:38:12;0.50;;;0.38;;
33786;SDS011;29742;51.540;9.358;2023-05-10T00:43:13;0.50;;;0.50;;
33786;SDS011;29742;51.540;9.358;2023-05-10T00:48:13;0.43;;;0.43;;
33786;SDS011;29742;51.540;9.358;2023-05-10T00:53:14;0.50;;;0.50;;
33786;SDS011;29742;51.540;9.358;2023-05-10T00:58:15;0.40;;;0.38;;
33786;SDS011;29742;51.540;9.358;2023-05-10T01:03:15;0.50;;;0.40;;
33786;SDS011;29742;51.540;9.358;2023-05-10T01:08:16;0.55;;;0.45;;
33786;SDS011;29742;51.540;9.358;2023-05-10T01:13:18;0.40;;;0.40;;
33786;SDS011;29742;51.540;9.358;2023-05-10T01:18:27;0.40;;;0.40;;
33786;SDS011;29742;51.540;9.358;2023-05-10T01:23:37;0.60;;;0.60;;
33786;SDS011;29742;51.540;9.358;2023-05-10T01:34:53;0.60;;;0.60;;
33786;SDS011;29742;51.540;9.358;2023-05-10T01:39:52;0.50;;;0.50;;
33786;SDS011;29742;51.540;9.358;2023-05-10T01:45:00;0.57;;;0.52;;
33786;SDS011;29742;51.540;9.358;2023-05-10T01:50:04;0.47;;;0.47;;
33786;SDS011;29742;51.540;9.358;2023-05-10T01:55:09;0.70;;;0.70;;
33786;SDS011;29742;51.540;9.358;2023-05-10T02:00:13;0.47;;;0.40;;
33786;SDS011;29742;51.540;9.358;2023-05-10T02:05:15;0.25;;;0.25;;
33786;SDS011;29742;51.540;9.358;2023-05-10T02:10:16;0.68;;;0.57;;
33786;SDS011;29742;51.540;9.358;2023-05-10T02:15:18;0.45;;;0.45;;
33786;SDS011;29742;51.540;9.358;2023-05-10T02:25:22;0.40;;;0.35;;
33786;SDS011;29742;51.540;9.358;2023-05-10T02:30:23;0.50;;;0.50;;
33786;SDS011;29742;51.540;9.358;2023-05-10T02:35:24;0.40;;;0.40;;
33786;SDS011;29742;51.540;9.358;2023-05-10T02:40:25;0.55;;;0.45;;
33786;SDS011;29742;51.540;9.358;2023-05-10T02:45:27;0.40;;;0.40;;
33786;SDS011;29742;51.540;9.358;2023-05-10T02:50:30;0.40;;;0.30;;
33786;SDS011;29742;51.540;9.358;2023-05-10T02:55:40;0.30;;;0.30;;
33786;SDS011;29742;51.540;9.358;2023-05-10T03:00:42;0.50;;;0.50;;
33786;SDS011;29742;51.540;9.358;2023-05-10T03:05:42;0.40;;;0.40;;
33786;SDS011;29742;51.540;9.358;2023-05-10T03:10:49;0.40;;;0.40;;
33786;SDS011;29742;51.540;9.358;2023-05-10T03:15:58;0.38;;;0.32;;
33786;SDS011;29742;51.540;9.358;2023-05-10T03:21:07;0.40;;;0.40;;
33786;SDS011;29742;51.540;9.358;2023-05-10T03:26:14;0.43;;;0.30;;
33786;SDS011;29742;51.540;9.358;2023-05-10T03:31:23;0.60;;;0.60;;
33786;SDS011;29742;51.540;9.358;2023-05-10T03:36:24;0.55;;;0.32;;
33786;SDS011;29742;51.540;9.358;2023-05-10T03:41:24;0.35;;;0.35;;
33786;SDS011;29742;51.540;9.358;2023-05-10T03:46:25;0.35;;;0.30;;
33786;SDS011;29742;51.540;9.358;2023-05-10T03:51:25;0.40;;;0.40;;
33786;SDS011;29742;51.540;9.358;2023-05-10T03:56:28;0.28;;;0.28;;
33786;SDS011;29742;51.540;9.358;2023-05-10T04:01:28;0.47;;;0.43;;
33786;SDS011;29742;51.540;9.358;2023-05-10T04:06:28;0.50;;;0.45;;
33786;SDS011;29742;51.540;9.358;2023-05-10T04:11:29;0.40;;;0.40;;
33786;SDS011;29742;51.540;9.358;2023-05-10T04:16:29;0.40;;;0.40;;
33786;SDS011;29742;51.540;9.358;2023-05-10T04:21:29;0.22;;;0.20;;
33786;SDS011;29742;51.540;9.358;2023-05-10T04:26:30;0.68;;;0.22;;
33786;SDS011;29742;51.540;9.358;2023-05-10T04:31:31;1.27;;;0.20;;
33786;SDS011;29742;51.540;9.358;2023-05-10T04:36:31;0.35;;;0.35;;
33786;SDS011;29742;51.540;9.358;2023-05-10T04:46:36;0.68;;;0.35;;
33786;SDS011;29742;51.540;9.358;2023-05-10T04:51:36;0.13;;;0.10;;
33786;SDS011;29742;51.540;9.358;2023-05-10T04:56:36;0.30;;;0.30;;
33786;SDS011;29742;51.540;9.358;2023-05-10T05:01:37;0.57;;;0.20;;
33786;SDS011;29742;51.540;9.358;2023-05-10T05:06:37;0.40;;;0.30;;
33786;SDS011;29742;51.540;9.358;2023-05-10T05:11:38;0.45;;;0.30;;
33786;SDS011;29742;51.540;9.358;2023-05-10T05:16:38;0.20;;;0.20;;
33786;SDS011;29742;51.540;9.358;2023-05-10T05:21:38;0.73;;;0.35;;
33786;SDS011;29742;51.540;9.358;2023-05-10T05:26:40;0.30;;;0.30;;
33786;SDS011;29742;51.540;9.358;2023-05-10T05:31:40;0.20;;;0.20;;
33786;SDS011;29742;51.540;9.358;2023-05-10T05:36:40;0.20;;;0.20;;
33786;SDS011;29742;51.540;9.358;2023-05-10T05:41:41;0.20;;;0.20;;
33786;SDS011;29742;51.540;9.358;2023-05-10T05:46:42;0.30;;;0.30;;
33786;SDS011;29742;51.540;9.358;2023-05-10T05:51:42;0.17;;;0.17;;
33786;SDS011;29742;51.540;9.358;2023-05-10T05:56:43;0.40;;;0.30;;
33786;SDS011;29742;51.540;9.358;2023-05-10T06:01:44;0.20;;;0.20;;
33786;SDS011;29742;51.540;9.358;2023-05-10T06:06:45;0.40;;;0.32;;
33786;SDS011;29742;51.540;9.358;2023-05-10T06:11:45;0.47;;;0.30;;
33786;SDS011;29742;51.540;9.358;2023-05-10T06:16:46;0.15;;;0.15;;
33786;SDS011;29742;51.540;9.358;2023-05-10T06:21:46;0.20;;;0.20;;
33786;SDS011;29742;51.540;9.358;2023-05-10T06:26:47;0.28;;;0.15;;
33786;SDS011;29742;51.540;9.358;2023-05-10T06:31:49;0.10;;;0.10;;
33786;SDS011;29742;51.540;9.358;2023-05-10T06:36:50;0.22;;;0.20;;
33786;SDS011;29742;51.540;9.358;2023-05-10T06:41:50;0.20;;;0.20;;
33786;SDS011;29742;51.540;9.358;2023-05-10T06:46:50;0.30;;;0.10;;
33786;SDS011;29742;51.540;9.358;2023-05-10T06:51:52;0.10;;;0.10;;
33786;SDS011;29742;51.540;9.358;2023-05-10T06:56:53;0.20;;;0.13;;
33786;SDS011;29742;51.540;9.358;2023-05-10T07:01:53;0.20;;;0.20;;
33786;SDS011;29742;51.540;9.358;2023-05-10T07:06:54;0.20;;;0.20;;
33786;SDS011;29742;51.540;9.358;2023-05-10T07:11:54;0.82;;;0.22;;
33786;SDS011;29742;51.540;9.358;2023-05-10T07:16:55;0.10;;;0.10;;
33786;SDS011;29742;51.540;9.358;2023-05-10T07:21:55;0.10;;;0.10;;
33786;SDS011;29742;51.540;9.358;2023-05-10T07:26:56;0.20;;;0.20;;
33786;SDS011;29742;51.540;9.358;2023-05-10T07:31:56;0.35;;;0.10;;
33786;SDS011;29742;51.540;9.358;2023-05-10T07:36:59;0.10;;;0.10;;
33786;SDS011;29742;51.540;9.358;2023-05-10T07:42:00;0.10;;;0.10;;
33786;SDS011;29742;51.540;9.358;2023-05-10T07:47:01;0.55;;;0.35;;
33786;SDS011;29742;51.540;9.358;2023-05-10T07:52:02;0.20;;;0.20;;
33786;SDS011;29742;51.540;9.358;2023-05-10T07:57:03;0.52;;;0.40;;
33786;SDS011;29742;51.540;9.358;2023-05-10T08:02:03;0.10;;;0.10;;
33786;SDS011;29742;51.540;9.358;2023-05-10T08:07:03;0.20;;;0.20;;
33786;SDS011;29742;51.540;9.358;2023-05-10T08:12:04;0.10;;;0.10;;
33786;SDS011;29742;51.540;9.358;2023-05-10T08:17:05;0.00;;;0.00;;
33786;SDS011;29742;51.540;9.358;2023-05-10T08:22:05;0.10;;;0.10;;
33786;SDS011;29742;51.540;9.358;2023-05-10T08:27:06;0.10;;;0.10;;
33786;SDS011;29742;51.540;9.358;2023-05-10T08:32:07;0.05;;;0.05;;
33786;SDS011;29742;51.540;9.358;2023-05-10T08:37:08;0.13;;;0.13;;
33786;SDS011;29742;51.540;9.358;2023-05-10T08:42:08;0.15;;;0.13;;
33786;SDS011;29742;51.540;9.358;2023-05-10T08:47:09;0.15;;;0.15;;
33786;SDS011;29742;51.540;9.358;2023-05-10T08:52:10;0.10;;;0.10;;
33786;SDS011;29742;51.540;9.358;2023-05-10T08:57:13;0.00;;;0.00;;
33786;SDS011;29742;51.540;9.358;2023-05-10T09:02:13;0.30;;;0.10;;
33786;SDS011;29742;51.540;9.358;2023-05-10T09:07:14;0.00;;;0.00;;
33786;SDS011;29742;51.540;9.358;2023-05-10T09:12:14;0.00;;;0.00;;
33786;SDS011;29742;51.540;9.358;2023-05-10T09:17:16;0.32;;;0.05;;
33786;SDS011;29742;51.540;9.358;2023-05-10T09:22:16;0.00;;;0.00;;
33786;SDS011;29742;51.540;9.358;2023-05-10T09:27:17;0.00;;;0.00;;
33786;SDS011;29742;51.540;9.358;2023-05-10T09:37:43;0.08;;;0.08;;
33786;SDS011;29742;51.540;9.358;2023-05-10T09:43:00;0.22;;;0.05;;
33786;SDS011;29742;51.540;9.358;2023-05-10T09:48:02;0.08;;;0.08;;
33786;SDS011;29742;51.540;9.358;2023-05-10T09:53:03;0.10;;;0.10;;
33786;SDS011;29742;51.540;9.358;2023-05-10T09:58:03;0.22;;;0.22;;
33786;SDS011;29742;51.540;9.358;2023-05-10T10:03:07;1.08;;;0.22;;
33786;SDS011;29742;51.540;9.358;2023-05-10T10:08:12;0.22;;;0.10;;
33786;SDS011;29742;51.540;9.358;2023-05-10T10:13:13;0.20;;;0.08;;
33786;SDS011;29742;51.540;9.358;2023-05-10T10:18:14;0.15;;;0.13;;
33786;SDS011;29742;51.540;9.358;2023-05-10T10:23:15;0.40;;;0.30;;
33786;SDS011;29742;51.540;9.358;2023-05-10T10:28:24;1.20;;;0.05;;
33786;SDS011;29742;51.540;9.358;2023-05-10T10:38:37;0.00;;;0.00;;
33786;SDS011;29742;51.540;9.358;2023-05-10T10:43:38;0.68;;;0.20;;
33786;SDS011;29742;51.540;9.358;2023-05-10T10:48:39;0.20;;;0.20;;
33786;SDS011;29742;51.540;9.358;2023-05-10T10:53:40;0.28;;;0.28;;
33786;SDS011;29742;51.540;9.358;2023-05-10T10:58:41;0.10;;;0.10;;
33786;SDS011;29742;51.540;9.358;2023-05-10T11:09:07;0.50;;;0.32;;
33786;SDS011;29742;51.540;9.358;2023-05-10T11:14:08;0.55;;;0.40;;
33786;SDS011;29742;51.540;9.358;2023-05-10T11:19:12;0.50;;;0.47;;
33786;SDS011;29742;51.540;9.358;2023-05-10T11:24:15;0.22;;;0.22;;
33786;SDS011;29742;51.540;9.358;2023-05-10T11:29:16;0.40;;;0.40;;
33786;SDS011;29742;51.540;9.358;2023-05-10T11:34:24;0.80;;;0.68;;
33786;SDS011;29742;51.540;9.358;2023-05-10T11:39:26;0.57;;;0.50;;
33786;SDS011;29742;51.540;9.358;2023-05-10T11:44:31;1.02;;;0.73;;
33786;SDS011;29742;51.540;9.358;2023-05-10T11:49:32;0.50;;;0.40;;
33786;SDS011;29742;51.540;9.358;2023-05-10T11:54:32;0.40;;;0.32;;
33786;SDS011;29742;51.540;9.358;2023-05-10T11:59:34;1.20;;;0.80;;
33786;SDS011;29742;51.540;9.358;2023-05-10T12:04:36;2.20;;;0.80;;
33786;SDS011;29742;51.540;9.358;2023-05-10T12:09:37;1.40;;;1.20;;
33786;SDS011;29742;51.540;9.358;2023-05-10T12:14:37;1.00;;;0.80;;
33786;SDS011;29742;51.540;9.358;2023-05-10T12:19:38;0.90;;;0.73;;
33786;SDS011;29742;51.540;9.358;2023-05-10T12:24:38;0.82;;;0.68;;
33786;SDS011;29742;51.540;9.358;2023-05-10T12:29:41;1.20;;;0.80;;
33786;SDS011;29742;51.540;9.358;2023-05-10T12:34:46;0.90;;;0.77;;
33786;SDS011;29742;51.540;9.358;2023-05-10T12:39:46;1.40;;;0.60;;
33786;SDS011;29742;51.540;9.358;2023-05-10T12:44:47;0.82;;;0.70;;
33786;SDS011;29742;51.540;9.358;2023-05-10T12:49:47;0.63;;;0.63;;
33786;SDS011;29742;51.540;9.358;2023-05-10T12:54:47;0.63;;;0.63;;
33786;SDS011;29742;51.540;9.358;2023-05-10T12:59:49;0.55;;;0.55;;
33786;SDS011;29742;51.540;9.358;2023-05-10T13:04:49;0.80;;;0.70;;
33786;SDS011;29742;51.540;9.358;2023-05-10T13:09:50;0.43;;;0.43;;
33786;SDS011;29742;51.540;9.358;2023-05-10T13:14:50;0.52;;;0.50;;
33786;SDS011;29742;51.540;9.358;2023-05-10T13:19:50;1.50;;;0.90;;
33786;SDS011;29742;51.540;9.358;2023-05-10T13:24:51;0.82;;;0.50;;
33786;SDS011;29742;51.540;9.358;2023-05-10T13:29:51;1.20;;;0.80;;
33786;SDS011;29742;51.540;9.358;2023-05-10T13:34:51;0.73;;;0.70;;
33786;SDS011;29742;51.540;9.358;2023-05-10T13:39:52;0.47;;;0.47;;
33786;SDS011;29742;51.540;9.358;2023-05-10T13:44:52;1.10;;;0.82;;
33786;SDS011;29742;51.540;9.358;2023-05-10T13:49:53;1.25;;;0.80;;
33786;SDS011;29742;51.540;9.358;2023-05-10T13:54:53;1.25;;;0.80;;
33786;SDS011;29742;51.540;9.358;2023-05-10T13:59:55;0.70;;;0.70;;
33786;SDS011;29742;51.540;9.358;2023-05-10T14:04:57;1.00;;;0.70;;
33786;SDS011;29742;51.540;9.358;2023-05-10T14:09:57;1.23;;;0.80;;
33786;SDS011;29742;51.540;9.358;2023-05-10T14:14:57;0.60;;;0.60;;
33786;SDS011;29742;51.540;9.358;2023-05-10T14:19:58;0.82;;;0.80;;
33786;SDS011;29742;51.540;9.358;2023-05-10T14:24:58;0.90;;;0.70;;
33786;SDS011;29742;51.540;9.358;2023-05-10T14:29:59;0.70;;;0.60;;
33786;SDS011;29742;51.540;9.358;2023-05-10T14:34:59;0.73;;;0.73;;
33786;SDS011;29742;51.540;9.358;2023-05-10T14:40:00;1.52;;;1.00;;
33786;SDS011;29742;51.540;9.358;2023-05-10T14:45:00;0.70;;;0.68;;
33786;SDS011;29742;51.540;9.358;2023-05-10T14:50:00;0.80;;;0.60;;
33786;SDS011;29742;51.540;9.358;2023-05-10T14:55:01;1.05;;;0.75;;
33786;SDS011;29742;51.540;9.358;2023-05-10T15:00:02;0.98;;;0.90;;
33786;SDS011;29742;51.540;9.358;2023-05-10T15:05:03;0.50;;;0.50;;
33786;SDS011;29742;51.540;9.358;2023-05-10T15:10:04;1.42;;;0.82;;
33786;SDS011;29742;51.540;9.358;2023-05-10T15:15:05;1.30;;;1.05;;
33786;SDS011;29742;51.540;9.358;2023-05-10T15:20:06;1.55;;;1.10;;
33786;SDS011;29742;51.540;9.358;2023-05-10T15:25:07;1.00;;;0.82;;
33786;SDS011;29742;51.540;9.358;2023-05-10T15:30:08;6.20;;;1.15;;
33786;SDS011;29742;51.540;9.358;2023-05-10T15:35:09;1.50;;;0.90;;
33786;SDS011;29742;51.540;9.358;2023-05-10T15:40:10;1.42;;;1.23;;
33786;SDS011;29742;51.540;9.358;2023-05-10T15:45:10;0.80;;;0.65;;
33786;SDS011;29742;51.540;9.358;2023-05-10T15:50:11;0.90;;;0.75;;
33786;SDS011;29742;51.540;9.358;2023-05-10T15:55:12;1.17;;;1.02;;
33786;SDS011;29742;51.540;9.358;2023-05-10T16:00:12;2.50;;;1.10;;
33786;SDS011;29742;51.540;9.358;2023-05-10T16:05:13;1.23;;;1.05;;
33786;SDS011;29742;51.540;9.358;2023-05-10T16:10:14;1.20;;;0.93;;
33786;SDS011;29742;51.540;9.358;2023-05-10T16:15:15;1.63;;;1.15;;
33786;SDS011;29742;51.540;9.358;2023-05-10T16:20:15;1.00;;;0.88;;
33786;SDS011;29742;51.540;9.358;2023-05-10T16:25:16;0.70;;;0.63;;
33786;SDS011;29742;51.540;9.358;2023-05-10T16:30:16;1.52;;;1.17;;
33786;SDS011;29742;51.540;9.358;2023-05-10T16:35:16;0.90;;;0.80;;
33786;SDS011;29742;51.540;9.358;2023-05-10T16:40:17;1.52;;;0.63;;
33786;SDS011;29742;51.540;9.358;2023-05-10T16:45:17;1.00;;;0.85;;
33786;SDS011;29742;51.540;9.358;2023-05-10T16:50:18;0.80;;;0.77;;
33786;SDS011;29742;51.540;9.358;2023-05-10T16:55:18;1.00;;;0.85;;
33786;SDS011;29742;51.540;9.358;2023-05-10T17:00:19;0.77;;;0.68;;
33786;SDS011;29742;51.540;9.358;2023-05-10T17:05:20;1.10;;;1.00;;
33786;SDS011;29742;51.540;9.358;2023-05-10T17:10:20;1.58;;;0.90;;
33786;SDS011;29742;51.540;9.358;2023-05-10T17:15:21;2.22;;;0.82;;
33786;SDS011;29742;51.540;9.358;2023-05-10T17:20:21;1.25;;;0.73;;
33786;SDS011;29742;51.540;9.358;2023-05-10T17:25:22;1.08;;;0.60;;
33786;SDS011;29742;51.540;9.358;2023-05-10T17:30:22;2.03;;;0.90;;
33786;SDS011;29742;51.540;9.358;2023-05-10T17:35:26;1.58;;;1.08;;
33786;SDS011;29742;51.540;9.358;2023-05-10T17:40:26;1.35;;;0.90;;
33786;SDS011;29742;51.540;9.358;2023-05-10T17:45:27;2.53;;;1.00;;
33786;SDS011;29742;51.540;9.358;2023-05-10T17:50:27;1.13;;;0.98;;
33786;SDS011;29742;51.540;9.358;2023-05-10T17:55:28;1.42;;;0.55;;
33786;SDS011;29742;51.540;9.358;2023-05-10T18:00:29;1.02;;;0.80;;
33786;SDS011;29742;51.540;9.358;2023-05-10T18:05:30;1.33;;;0.77;;
33786;SDS011;29742;51.540;9.358;2023-05-10T18:10:30;0.98;;;0.77;;
33786;SDS011;29742;51.540;9.358;2023-05-10T18:15:31;1.10;;;0.88;;
33786;SDS011;29742;51.540;9.358;2023-05-10T18:20:32;1.20;;;0.98;;
33786;SDS011;29742;51.540;9.358;2023-05-10T18:25:32;1.02;;;0.73;;
33786;SDS011;29742;51.540;9.358;2023-05-10T18:30:32;1.52;;;0.80;;
33786;SDS011;29742;51.540;9.358;2023-05-10T18:35:33;1.02;;;0.68;;
33786;SDS011;29742;51.540;9.358;2023-05-10T18:40:34;0.80;;;0.52;;
33786;SDS011;29742;51.540;9.358;2023-05-10T18:45:35;0.63;;;0.60;;
33786;SDS011;29742;51.540;9.358;2023-05-10T18:50:35;0.85;;;0.40;;
33786;SDS011;29742;51.540;9.358;2023-05-10T18:55:36;1.10;;;0.68;;
33786;SDS011;29742;51.540;9.358;2023-05-10T19:00:36;0.77;;;0.60;;
33786;SDS011;29742;51.540;9.358;2023-05-10T19:05:37;0.88;;;0.57;;
33786;SDS011;29742;51.540;9.358;2023-05-10T19:10:37;0.32;;;0.30;;
33786;SDS011;29742;51.540;9.358;2023-05-10T19:15:37;1.73;;;0.60;;
33786;SDS011;29742;51.540;9.358;2023-05-10T19:20:38;1.05;;;0.60;;
33786;SDS011;29742;51.540;9.358;2023-05-10T19:25:38;0.85;;;0.55;;
33786;SDS011;29742;51.540;9.358;2023-05-10T19:30:41;0.50;;;0.50;;
33786;SDS011;29742;51.540;9.358;2023-05-10T19:35:41;0.40;;;0.20;;
33786;SDS011;29742;51.540;9.358;2023-05-10T19:40:42;0.30;;;0.30;;
33786;SDS011;29742;51.540;9.358;2023-05-10T19:45:42;0.40;;;0.40;;
33786;SDS011;29742;51.540;9.358;2023-05-10T19:50:43;0.77;;;0.45;;
33786;SDS011;29742;51.540;9.358;2023-05-10T19:55:43;0.38;;;0.30;;
33786;SDS011;29742;51.540;9.358;2023-05-10T20:00:43;0.98;;;0.30;;
33786;SDS011;29742;51.540;9.358;2023-05-10T20:05:44;1.25;;;0.40;;
33786;SDS011;29742;51.540;9.358;2023-05-10T20:10:44;0.75;;;0.45;;
33786;SDS011;29742;51.540;9.358;2023-05-10T20:15:45;0.63;;;0.45;;
33786;SDS011;29742;51.540;9.358;2023-05-10T20:20:45;6.38;;;0.77;;
33786;SDS011;29742;51.540;9.358;2023-05-10T20:25:45;0.45;;;0.28;;
33786;SDS011;29742;51.540;9.358;2023-05-10T20:30:46;0.57;;;0.43;;
33786;SDS011;29742;51.540;9.358;2023-05-10T20:35:46;1.00;;;0.60;;
33786;SDS011;29742;51.540;9.358;2023-05-10T20:40:47;0.25;;;0.25;;
33786;SDS011;29742;51.540;9.358;2023-05-10T20:45:48;0.43;;;0.20;;
33786;SDS011;29742;51.540;9.358;2023-05-10T20:50:48;0.73;;;0.40;;
33786;SDS011;29742;51.540;9.358;2023-05-10T20:55:50;0.47;;;0.40;;
33786;SDS011;29742;51.540;9.358;2023-05-10T21:00:50;0.50;;;0.30;;
33786;SDS011;29742;51.540;9.358;2023-05-10T21:05:50;0.50;;;0.50;;
33786;SDS011;29742;51.540;9.358;2023-05-10T21:10:51;0.75;;;0.20;;
33786;SDS011;29742;51.540;9.358;2023-05-10T21:15:52;0.70;;;0.22;;
33786;SDS011;29742;51.540;9.358;2023-05-10T21:20:53;0.50;;;0.50;;
33786;SDS011;29742;51.540;9.358;2023-05-10T21:25:53;0.20;;;0.20;;
33786;SDS011;29742;51.540;9.358;2023-05-10T21:30:54;0.20;;;0.20;;
33786;SDS011;29742;51.540;9.358;2023-05-10T21:35:55;0.50;;;0.50;;
33786;SDS011;29742;51.540;9.358;2023-05-10T21:40:56;0.32;;;0.30;;
33786;SDS011;29742;51.540;9.358;2023-05-10T21:45:56;0.75;;;0.40;;
33786;SDS011;29742;51.540;9.358;2023-05-10T21:50:57;0.40;;;0.40;;
33786;SDS011;29742;51.540;9.358;2023-05-10T21:55:58;0.50;;;0.40;;
33786;SDS011;29742;51.540;9.358;2023-05-10T22:00:58;0.47;;;0.40;;
33786;SDS011;29742;51.540;9.358;2023-05-10T22:05:59;0.40;;;0.30;;
33786;SDS011;29742;51.540;9.358;2023-05-10T22:11:00;0.30;;;0.25;;
33786;SDS011;29742;51.540;9.358;2023-05-10T22:16:00;0.40;;;0.40;;
33786;SDS011;29742;51.540;9.358;2023-05-10T22:21:00;0.38;;;0.38;;
33786;SDS011;29742;51.540;9.358;2023-05-10T22:26:01;0.40;;;0.40;;
33786;SDS011;29742;51.540;9.358;2023-05-10T22:31:01;0.20;;;0.20;;
33786;SDS011;29742;51.540;9.358;2023-05-10T22:36:02;0.47;;;0.35;;
33786;SDS011;29742;51.540;9.358;2023-05-10T22:41:02;0.47;;;0.40;;
33786;SDS011;29742;51.540;9.358;2023-05-10T22:46:03;0.45;;;0.30;;
33786;SDS011;29742;51.540;9.358;2023-05-10T22:51:03;0.30;;;0.30;;
33786;SDS011;29742;51.540;9.358;2023-05-10T22:56:04;0.47;;;0.38;;
33786;SDS011;29742;51.540;9.358;2023-05-10T23:01:05;0.50;;;0.28;;
33786;SDS011;29742;51.540;9.358;2023-05-10T23:06:05;0.30;;;0.30;;
33786;SDS011;29742;51.540;9.358;2023-05-10T23:11:05;0.10;;;0.10;;
33786;SDS011;29742;51.540;9.358;2023-05-10T23:16:06;0.20;;;0.20;;
33786;SDS011;29742;51.540;9.358;2023-05-10T23:21:06;0.47;;;0.30;;
33786;SDS011;29742;51.540;9.358;2023-05-10T23:26:07;0.40;;;0.38;;
33786;SDS011;29742;51.540;9.358;2023-05-10T23:31:08;0.22;;;0.17;;
33786;SDS011;29742;51.540;9.358;2023-05-10T23:36:08;0.40;;;0.28;;
33786;SDS011;29742;51.540;9.358;2023-05-10T23:41:09;0.17;;;0.10;;
33786;SDS011;29742;51.540;9.358;2023-05-10T23:46:09;0.73;;;0.35;;
33786;SDS011;29742;51.540;9.358;2023-05-10T23:51:09;0.25;;;0.25;;
33786;SDS011;29742;51.540;9.358;2023-05-10T23:56:10;0.28;;;0.28;;
